createdAt,value
2023-10-22T00:04:49.624Z,99832.73
2023-10-22T00:09:56.603Z,99831.52
2023-10-22T00:15:02.248Z,99831.84
2023-10-22T00:20:10.698Z,99838.16
2023-10-22T00:25:16.431Z,99828.00
2023-10-22T00:30:22.011Z,99819.22
2023-10-22T00:35:27.881Z,99811.08
2023-10-22T00:40:33.372Z,99807.52
2023-10-22T00:45:40.373Z,99802.45
2023-10-22T00:50:46.678Z,99808.52
2023-10-22T00:55:52.545Z,99812.52
2023-10-22T01:00:58.555Z,99810.48
2023-10-22T01:06:06.857Z,99805.55
2023-10-22T01:11:13.448Z,99799.94
2023-10-22T01:16:20.031Z,99787.96
2023-10-22T01:21:30.461Z,99790.38
2023-10-22T01:26:42.290Z,99784.04
2023-10-22T01:31:48.198Z,99763.92
2023-10-22T01:36:54.006Z,99747.56
2023-10-22T01:41:59.717Z,99738.29
2023-10-22T01:47:05.910Z,99721.39
2023-10-22T01:52:12.205Z,99718.69
2023-10-22T01:57:17.949Z,99721.59
2023-10-22T02:02:23.670Z,99726.77
2023-10-22T02:07:30.075Z,99722.30
2023-10-22T02:12:35.943Z,99738.27
2023-10-22T02:17:42.905Z,99723.14
2023-10-22T02:22:49.909Z,99723.79
2023-10-22T02:27:55.600Z,99711.14
2023-10-22T02:33:01.420Z,99709.88
2023-10-22T02:38:07.066Z,99709.95
2023-10-22T02:43:13.287Z,99700.58
2023-10-22T02:48:19.205Z,99700.30
2023-10-22T02:53:24.930Z,99698.77
2023-10-22T02:58:30.597Z,99719.86
2023-10-22T03:03:42.495Z,99736.58
2023-10-22T03:08:48.839Z,99744.59
2023-10-22T03:13:54.580Z,99752.55
2023-10-22T03:19:00.147Z,99761.39
2023-10-22T03:24:09.554Z,99752.88
2023-10-22T03:29:15.427Z,99751.14
2023-10-22T03:34:21.301Z,99750.77
2023-10-22T03:39:27.278Z,99775.67
2023-10-22T03:44:33.072Z,99745.34
2023-10-22T03:49:39.350Z,99740.09
2023-10-22T03:54:44.964Z,99742.05
2023-10-22T03:59:50.539Z,99736.12
2023-10-22T04:04:56.177Z,99706.27
2023-10-22T04:10:03.894Z,99702.56
2023-10-22T04:15:11.053Z,99693.72
2023-10-22T04:20:17.472Z,99697.91
2023-10-22T04:25:23.054Z,99688.57
2023-10-22T04:30:28.718Z,99674.92
2023-10-22T04:35:37.155Z,99653.45
2023-10-22T04:40:42.942Z,99652.59
2023-10-22T04:45:51.627Z,99643.30
2023-10-22T04:50:59.219Z,99643.80
2023-10-22T04:56:05.766Z,99639.16
2023-10-22T05:01:13.471Z,99630.27
2023-10-22T05:06:19.188Z,99627.00
2023-10-22T05:11:27.765Z,99628.95
2023-10-22T05:16:34.629Z,99621.91
2023-10-22T05:21:40.966Z,99621.39
2023-10-22T05:26:46.593Z,99627.59
2023-10-22T05:31:52.594Z,99626.91
2023-10-22T05:36:58.378Z,99632.31
2023-10-22T05:42:04.934Z,99642.31
2023-10-22T05:47:10.829Z,99636.48
2023-10-22T05:52:16.600Z,99625.02
2023-10-22T05:57:24.325Z,99609.16
2023-10-22T06:02:30.161Z,99592.75
2023-10-22T06:07:35.898Z,99588.03
2023-10-22T06:12:41.626Z,99587.39
2023-10-22T06:17:47.290Z,99597.95
2023-10-22T06:22:52.912Z,99599.64
2023-10-22T06:27:58.712Z,99588.13
2023-10-22T06:33:05.609Z,99575.29
2023-10-22T06:38:11.600Z,99577.73
2023-10-22T06:43:17.247Z,99578.88
2023-10-22T06:48:23.129Z,99567.84
2023-10-22T06:53:29.543Z,99560.27
2023-10-22T06:58:39.057Z,99555.16
2023-10-22T07:03:47.765Z,99540.36
2023-10-22T07:08:53.605Z,99524.25
2023-10-22T07:13:59.332Z,99509.08
2023-10-22T07:19:05.407Z,99505.55
2023-10-22T07:24:11.620Z,99503.60
2023-10-22T07:29:18.447Z,99487.38
2023-10-22T07:34:24.105Z,99479.45
2023-10-22T07:39:29.809Z,99474.35
2023-10-22T07:44:35.856Z,99471.67
2023-10-22T07:49:43.629Z,99472.08
2023-10-22T07:54:53.453Z,99471.36
2023-10-22T07:59:59.188Z,99465.89
2023-10-22T08:05:05.386Z,99465.53
2023-10-22T08:10:11.761Z,99463.54
2023-10-22T08:15:18.026Z,99461.30
2023-10-22T08:20:23.802Z,99453.73
2023-10-22T08:25:29.530Z,99449.68
2023-10-22T08:30:36.274Z,99444.66
2023-10-22T08:35:43.373Z,99440.48
2023-10-22T08:40:53.206Z,99435.41
2023-10-22T08:45:59.962Z,99425.10
2023-10-22T08:51:06.553Z,99427.63
2023-10-22T08:56:12.892Z,99428.02
2023-10-22T09:01:19.548Z,99426.05
2023-10-22T09:06:25.395Z,99423.17
2023-10-22T09:11:31.384Z,99409.23
2023-10-22T09:16:38.819Z,99407.85
2023-10-22T09:21:45.950Z,99398.77
2023-10-22T09:26:53.964Z,99392.85
2023-10-22T09:32:00.972Z,99391.81
2023-10-22T09:37:06.755Z,99379.59
2023-10-22T09:42:17.404Z,99366.39
2023-10-22T09:47:24.617Z,99356.73
2023-10-22T09:52:37.125Z,99359.34
2023-10-22T09:57:44.736Z,99351.92
2023-10-22T10:02:50.617Z,99350.70
2023-10-22T10:07:56.848Z,99350.86
2023-10-22T10:13:03.632Z,99339.61
2023-10-22T10:18:11.315Z,99338.37
2023-10-22T10:23:20.777Z,99330.46
2023-10-22T10:28:46.655Z,99327.11
2023-10-22T10:34:05.184Z,99316.10
2023-10-22T10:39:38.926Z,99314.80
2023-10-22T10:45:08.838Z,99307.71
2023-10-22T10:50:20.150Z,99301.18
2023-10-22T10:55:35.508Z,99292.61
2023-10-22T11:00:50.804Z,99284.77
2023-10-22T11:06:03.750Z,99278.90
2023-10-22T11:11:16.946Z,99277.13
2023-10-22T11:16:22.638Z,99272.57
2023-10-22T11:21:30.239Z,99271.50
2023-10-22T11:26:36.350Z,99268.73
2023-10-22T11:31:52.792Z,99264.36
2023-10-22T11:37:01.730Z,99265.16
2023-10-22T11:42:08.961Z,99263.11
2023-10-22T11:47:28.547Z,99268.90
2023-10-22T11:52:52.485Z,99270.92
2023-10-22T11:57:58.666Z,99273.26
2023-10-22T12:03:04.531Z,99267.54
2023-10-22T12:08:10.382Z,99265.87
2023-10-22T12:13:16.209Z,99268.02
2023-10-22T12:18:22.049Z,99277.39
2023-10-22T12:23:38.140Z,99275.59
2023-10-22T12:28:52.985Z,99273.34
2023-10-22T12:33:58.618Z,99273.98
2023-10-22T12:39:04.765Z,99273.64
2023-10-22T12:44:10.437Z,99281.73
2023-10-22T12:49:16.180Z,99288.65
2023-10-22T12:54:21.866Z,99293.75
2023-10-22T12:59:31.481Z,99294.80
2023-10-22T13:04:37.726Z,99298.96
2023-10-22T13:09:43.753Z,99307.57
2023-10-22T13:14:51.120Z,99311.04
2023-10-22T13:19:57.404Z,99309.75
2023-10-22T13:25:04.015Z,99309.81
2023-10-22T13:30:13.507Z,99318.70
2023-10-22T13:35:19.334Z,99322.29
2023-10-22T13:40:25.099Z,99320.42
2023-10-22T13:45:30.832Z,99325.64
2023-10-22T13:50:38.277Z,99331.27
2023-10-22T13:55:44.024Z,99331.98
2023-10-22T14:00:50.919Z,99336.06
2023-10-22T14:05:56.803Z,99337.55
2023-10-22T14:11:02.497Z,99346.36
2023-10-22T14:16:08.669Z,99348.91
2023-10-22T14:21:16.259Z,99350.89
2023-10-22T14:26:25.632Z,99351.92
2023-10-22T14:31:31.355Z,99357.02
2023-10-22T14:36:37.696Z,99363.71
2023-10-22T14:41:43.374Z,99370.58
2023-10-22T14:46:49.010Z,99374.70
2023-10-22T14:51:54.729Z,99382.03
2023-10-22T14:57:00.684Z,99384.96
2023-10-22T15:02:06.824Z,99393.55
2023-10-22T15:07:13.397Z,99402.52
2023-10-22T15:12:20.209Z,99410.82
2023-10-22T15:17:27.664Z,99418.85
2023-10-22T15:22:33.186Z,99433.91
2023-10-22T15:27:39.390Z,99447.86
2023-10-22T15:32:45.006Z,99456.31
2023-10-22T15:37:52.299Z,99468.80
2023-10-22T15:42:59.239Z,99476.16
2023-10-22T15:48:05.960Z,99490.18
2023-10-22T15:53:12.218Z,99503.70
2023-10-22T15:58:17.937Z,99513.80
2023-10-22T16:03:23.826Z,99519.95
2023-10-22T16:08:29.810Z,99532.21
2023-10-22T16:13:35.489Z,99545.47
2023-10-22T16:18:41.311Z,99554.85
2023-10-22T16:23:47.020Z,99565.89
2023-10-22T16:28:58.665Z,99578.44
2023-10-22T16:34:05.046Z,99596.69
2023-10-22T16:39:10.957Z,99603.54
2023-10-22T16:44:16.640Z,99606.07
2023-10-22T16:49:22.743Z,99614.98
2023-10-22T16:54:29.127Z,99621.64
2023-10-22T16:59:34.747Z,99627.52
2023-10-22T17:04:40.482Z,99639.64
2023-10-22T17:10:01.766Z,99644.52
2023-10-22T17:15:26.455Z,99648.59
2023-10-22T17:20:32.346Z,99655.66
2023-10-22T17:25:45.232Z,99663.55
2023-10-22T17:30:51.170Z,99669.87
2023-10-22T17:35:58.317Z,99673.91
2023-10-22T17:41:04.006Z,99681.27
2023-10-22T17:46:13.328Z,99694.14
2023-10-22T17:51:20.030Z,99705.30
2023-10-22T17:56:26.163Z,99711.61
2023-10-22T18:01:34.399Z,99718.58
2023-10-22T18:06:40.443Z,99724.20
2023-10-22T18:11:46.214Z,99729.70
2023-10-22T18:16:52.216Z,99741.47
2023-10-22T18:21:58.010Z,99752.98
2023-10-22T18:27:04.161Z,99762.25
2023-10-22T18:32:09.947Z,99767.64
2023-10-22T18:37:16.026Z,99775.73
2023-10-22T18:42:21.724Z,99786.58
2023-10-22T18:47:27.369Z,99794.02
2023-10-22T18:52:33.261Z,99805.77
2023-10-22T18:57:39.358Z,99816.33
2023-10-22T19:02:45.023Z,99823.30
2023-10-22T19:07:50.921Z,99830.67
2023-10-22T19:12:56.736Z,99835.23
2023-10-22T19:18:03.222Z,99843.02
2023-10-22T19:23:11.412Z,99848.00
2023-10-22T19:28:19.660Z,99858.44
2023-10-22T19:33:31.642Z,99861.55
2023-10-22T19:38:37.714Z,99867.60
2023-10-22T19:43:43.349Z,99874.11
2023-10-22T19:48:49.146Z,99881.05
2023-10-22T19:53:55.329Z,99888.54
2023-10-22T19:59:01.160Z,99889.17
2023-10-22T20:04:08.279Z,99897.63
2023-10-22T20:09:14.638Z,99901.20
2023-10-22T20:14:20.417Z,99910.21
2023-10-22T20:19:26.031Z,99915.71
2023-10-22T20:24:34.305Z,99919.05
2023-10-22T20:29:40.940Z,99919.59
2023-10-22T20:34:46.578Z,99924.50
2023-10-22T20:40:11.341Z,99933.04
2023-10-22T20:45:25.969Z,99936.09
2023-10-22T20:50:32.968Z,99942.14
2023-10-22T20:55:41.160Z,99950.27
2023-10-22T21:00:47.532Z,99948.92
2023-10-22T21:06:02.208Z,99949.58
2023-10-22T21:11:13.066Z,99953.73
2023-10-22T21:16:38.623Z,99954.77
2023-10-22T21:28:26.847Z,99966.59
2023-10-22T21:33:32.994Z,99975.48
2023-10-22T21:38:40.451Z,99977.86
2023-10-22T21:43:46.308Z,99980.36
2023-10-22T21:48:52.787Z,99982.47
2023-10-22T21:53:58.786Z,99984.10
2023-10-22T21:59:04.674Z,99996.08
2023-10-22T22:04:11.082Z,100006.61
2023-10-22T22:09:18.308Z,100017.27
2023-10-22T22:14:24.104Z,100027.52
2023-10-22T22:19:32.644Z,100032.33
2023-10-22T22:24:42.920Z,100035.85
2023-10-22T22:29:48.821Z,100039.09
2023-10-22T22:34:57.885Z,100048.28
2023-10-22T22:40:04.953Z,100052.83
2023-10-22T22:45:13.531Z,100057.38
2023-10-22T22:50:19.545Z,100064.32
2023-10-22T22:55:26.197Z,100070.09
2023-10-22T23:00:32.133Z,100072.24
2023-10-22T23:05:38.614Z,100075.73
2023-10-22T23:10:44.745Z,100076.66
2023-10-22T23:16:00.209Z,100087.78
2023-10-22T23:21:18.614Z,100090.17
2023-10-22T23:26:32.408Z,100091.77
2023-10-22T23:31:44.131Z,100100.51
2023-10-22T23:37:01.424Z,100105.77
2023-10-22T23:42:10.355Z,100107.70
2023-10-22T23:47:16.500Z,100106.35
2023-10-22T23:52:22.452Z,100108.20
2023-10-22T23:57:41.324Z,100117.88
